sensor_id;sensor_type;location;lat;lon;timestamp;pressure;altitude;pressure_sealevel;temperature;humidity
12666;BME280;58531;59.050;17.416;2022-08-21T00:01:44;100716.19;;;14.57;93.52
12666;BME280;58531;59.050;17.416;2022-08-21T00:04:10;100714.81;;;14.47;94.09
12666;BME280;58531;59.050;17.416;2022-08-21T00:06:37;100728.28;;;14.38;95.30
12666;BME280;58531;59.050;17.416;2022-08-21T00:09:06;100724.16;;;14.28;95.48
12666;BME280;58531;59.050;17.416;2022-08-21T00:11:37;100723.91;;;14.18;96.69
12666;BME280;58531;59.050;17.416;2022-08-21T00:14:06;100716.78;;;14.06;96.40
12666;BME280;58531;59.050;17.416;2022-08-21T00:16:33;100719.81;;;13.99;96.13
12666;BME280;58531;59.050;17.416;2022-08-21T00:19:00;100721.47;;;13.96;96.48
12666;BME280;58531;59.050;17.416;2022-08-21T00:21:27;100728.78;;;13.96;97.12
12666;BME280;58531;59.050;17.416;2022-08-21T00:23:54;100728.50;;;13.94;97.66
12666;BME280;58531;59.050;17.416;2022-08-21T00:26:20;100727.44;;;13.91;98.50
12666;BME280;58531;59.050;17.416;2022-08-21T00:28:48;100732.09;;;13.91;98.89
12666;BME280;58531;59.050;17.416;2022-08-21T00:31:16;100727.44;;;13.91;99.63
12666;BME280;58531;59.050;17.416;2022-08-21T00:33:43;100721.34;;;13.91;99.10
12666;BME280;58531;59.050;17.416;2022-08-21T00:36:10;100713.59;;;13.93;100.00
12666;BME280;58531;59.050;17.416;2022-08-21T00:38:37;100716.72;;;13.91;100.00
12666;BME280;58531;59.050;17.416;2022-08-21T00:41:07;100714.16;;;13.97;99.31
12666;BME280;58531;59.050;17.416;2022-08-21T00:43:36;100709.94;;;14.05;99.89
12666;BME280;58531;59.050;17.416;2022-08-21T00:46:05;100706.03;;;14.06;99.59
12666;BME280;58531;59.050;17.416;2022-08-21T00:48:33;100711.69;;;14.08;96.68
12666;BME280;58531;59.050;17.416;2022-08-21T00:51:05;100710.19;;;14.16;96.27
12666;BME280;58531;59.050;17.416;2022-08-21T00:53:35;100697.38;;;14.11;98.09
12666;BME280;58531;59.050;17.416;2022-08-21T00:56:04;100681.16;;;14.05;97.55
12666;BME280;58531;59.050;17.416;2022-08-21T00:58:32;100674.47;;;14.01;96.75
12666;BME280;58531;59.050;17.416;2022-08-21T01:01:02;100675.25;;;13.92;96.91
12666;BME280;58531;59.050;17.416;2022-08-21T01:03:31;100682.38;;;13.95;94.44
12666;BME280;58531;59.050;17.416;2022-08-21T01:05:58;100694.00;;;14.01;93.32
12666;BME280;58531;59.050;17.416;2022-08-21T01:08:26;100693.25;;;14.01;94.76
12666;BME280;58531;59.050;17.416;2022-08-21T01:10:54;100702.53;;;14.00;94.76
12666;BME280;58531;59.050;17.416;2022-08-21T01:13:23;100693.59;;;13.94;95.96
12666;BME280;58531;59.050;17.416;2022-08-21T01:15:53;100685.56;;;13.85;96.85
12666;BME280;58531;59.050;17.416;2022-08-21T01:18:20;100688.13;;;13.79;97.51
12666;BME280;58531;59.050;17.416;2022-08-21T01:21:02;100697.72;;;13.71;98.52
12666;BME280;58531;59.050;17.416;2022-08-21T01:23:30;100692.69;;;13.64;99.31
12666;BME280;58531;59.050;17.416;2022-08-21T01:25:57;100692.09;;;13.60;99.51
12666;BME280;58531;59.050;17.416;2022-08-21T01:28:24;100701.47;;;13.56;100.00
12666;BME280;58531;59.050;17.416;2022-08-21T01:30:52;100698.50;;;13.54;100.00
12666;BME280;58531;59.050;17.416;2022-08-21T01:33:20;100691.38;;;13.51;100.00
12666;BME280;58531;59.050;17.416;2022-08-21T01:35:48;100694.97;;;13.48;100.00
12666;BME280;58531;59.050;17.416;2022-08-21T01:38:16;100691.38;;;13.51;100.00
12666;BME280;58531;59.050;17.416;2022-08-21T01:40:43;100682.88;;;13.52;100.00
12666;BME280;58531;59.050;17.416;2022-08-21T01:43:10;100689.25;;;13.55;100.00
12666;BME280;58531;59.050;17.416;2022-08-21T01:45:37;100683.47;;;13.56;100.00
12666;BME280;58531;59.050;17.416;2022-08-21T01:48:03;100680.59;;;13.60;100.00
12666;BME280;58531;59.050;17.416;2022-08-21T01:50:32;100684.16;;;13.66;100.00
12666;BME280;58531;59.050;17.416;2022-08-21T01:52:58;100683.84;;;13.73;100.00
12666;BME280;58531;59.050;17.416;2022-08-21T01:55:26;100691.84;;;13.82;100.00
12666;BME280;58531;59.050;17.416;2022-08-21T01:57:53;100680.94;;;13.85;100.00
12666;BME280;58531;59.050;17.416;2022-08-21T02:00:22;100679.59;;;13.90;100.00
12666;BME280;58531;59.050;17.416;2022-08-21T02:02:49;100676.72;;;13.93;100.00
12666;BME280;58531;59.050;17.416;2022-08-21T02:05:17;100684.91;;;13.99;100.00
12666;BME280;58531;59.050;17.416;2022-08-21T02:07:47;100680.09;;;14.03;100.00
12666;BME280;58531;59.050;17.416;2022-08-21T02:10:16;100675.00;;;14.05;100.00
12666;BME280;58531;59.050;17.416;2022-08-21T02:12:46;100686.97;;;14.04;100.00
12666;BME280;58531;59.050;17.416;2022-08-21T02:15:12;100691.41;;;14.07;100.00
12666;BME280;58531;59.050;17.416;2022-08-21T02:17:42;100692.91;;;14.08;100.00
12666;BME280;58531;59.050;17.416;2022-08-21T02:20:10;100695.88;;;14.10;100.00
12666;BME280;58531;59.050;17.416;2022-08-21T02:22:37;100691.13;;;14.14;100.00
12666;BME280;58531;59.050;17.416;2022-08-21T02:25:05;100686.50;;;14.14;100.00
12666;BME280;58531;59.050;17.416;2022-08-21T02:27:38;100677.25;;;14.15;100.00
12666;BME280;58531;59.050;17.416;2022-08-21T02:30:09;100676.94;;;14.13;100.00
12666;BME280;58531;59.050;17.416;2022-08-21T02:32:36;100672.00;;;14.12;100.00
12666;BME280;58531;59.050;17.416;2022-08-21T02:35:04;100673.19;;;14.19;100.00
12666;BME280;58531;59.050;17.416;2022-08-21T02:37:31;100674.50;;;14.24;100.00
12666;BME280;58531;59.050;17.416;2022-08-21T02:39:59;100679.13;;;14.23;100.00
12666;BME280;58531;59.050;17.416;2022-08-21T02:42:26;100680.59;;;14.24;100.00
12666;BME280;58531;59.050;17.416;2022-08-21T02:44:53;100672.25;;;14.22;100.00
12666;BME280;58531;59.050;17.416;2022-08-21T02:47:21;100663.00;;;14.23;100.00
12666;BME280;58531;59.050;17.416;2022-08-21T02:49:47;100663.19;;;14.20;100.00
12666;BME280;58531;59.050;17.416;2022-08-21T02:52:14;100663.81;;;14.15;100.00
12666;BME280;58531;59.050;17.416;2022-08-21T02:54:41;100665.00;;;14.14;100.00
12666;BME280;58531;59.050;17.416;2022-08-21T02:57:07;100680.81;;;14.12;100.00
12666;BME280;58531;59.050;17.416;2022-08-21T02:59:34;100684.69;;;14.11;100.00
12666;BME280;58531;59.050;17.416;2022-08-21T03:02:01;100676.78;;;14.08;100.00
12666;BME280;58531;59.050;17.416;2022-08-21T03:04:29;100673.66;;;14.09;100.00
12666;BME280;58531;59.050;17.416;2022-08-21T03:06:56;100674.09;;;14.08;100.00
12666;BME280;58531;59.050;17.416;2022-08-21T03:09:22;100670.13;;;14.03;100.00
12666;BME280;58531;59.050;17.416;2022-08-21T03:11:49;100668.16;;;14.04;100.00
12666;BME280;58531;59.050;17.416;2022-08-21T03:14:16;100672.00;;;14.12;98.91
12666;BME280;58531;59.050;17.416;2022-08-21T03:16:43;100671.13;;;14.15;100.00
12666;BME280;58531;59.050;17.416;2022-08-21T03:19:10;100669.63;;;14.14;99.74
12666;BME280;58531;59.050;17.416;2022-08-21T03:21:38;100687.66;;;14.13;100.00
12666;BME280;58531;59.050;17.416;2022-08-21T03:24:05;100685.41;;;14.12;100.00
12666;BME280;58531;59.050;17.416;2022-08-21T03:26:34;100679.75;;;14.10;100.00
12666;BME280;58531;59.050;17.416;2022-08-21T03:29:02;100687.53;;;14.08;100.00
12666;BME280;58531;59.050;17.416;2022-08-21T03:31:29;100680.53;;;14.10;100.00
12666;BME280;58531;59.050;17.416;2022-08-21T03:33:56;100678.28;;;14.09;100.00
12666;BME280;58531;59.050;17.416;2022-08-21T03:36:24;100684.41;;;14.09;100.00
12666;BME280;58531;59.050;17.416;2022-08-21T03:38:55;100680.22;;;14.08;100.00
12666;BME280;58531;59.050;17.416;2022-08-21T03:41:24;100683.66;;;14.09;100.00
12666;BME280;58531;59.050;17.416;2022-08-21T03:43:51;100676.78;;;14.08;100.00
12666;BME280;58531;59.050;17.416;2022-08-21T03:46:19;100676.22;;;14.04;100.00
12666;BME280;58531;59.050;17.416;2022-08-21T03:48:47;100677.69;;;14.05;100.00
12666;BME280;58531;59.050;17.416;2022-08-21T03:51:14;100684.56;;;14.06;100.00
12666;BME280;58531;59.050;17.416;2022-08-21T03:53:40;100680.84;;;14.03;100.00
12666;BME280;58531;59.050;17.416;2022-08-21T03:56:09;100684.56;;;14.06;100.00
12666;BME280;58531;59.050;17.416;2022-08-21T03:58:36;100681.59;;;14.04;100.00
12666;BME280;58531;59.050;17.416;2022-08-21T04:01:04;100685.47;;;14.03;100.00
12666;BME280;58531;59.050;17.416;2022-08-21T04:03:34;100683.25;;;14.01;100.00
12666;BME280;58531;59.050;17.416;2022-08-21T04:06:01;100681.03;;;14.00;100.00
12666;BME280;58531;59.050;17.416;2022-08-21T04:08:28;100683.88;;;13.96;100.00
12666;BME280;58531;59.050;17.416;2022-08-21T04:10:57;100686.75;;;13.93;100.00
12666;BME280;58531;59.050;17.416;2022-08-21T04:13:26;100691.53;;;13.89;100.00
12666;BME280;58531;59.050;17.416;2022-08-21T04:15:53;100690.94;;;13.85;100.00
12666;BME280;58531;59.050;17.416;2022-08-21T04:18:20;100688.88;;;13.80;100.00
12666;BME280;58531;59.050;17.416;2022-08-21T04:20:50;100685.91;;;13.78;100.00
12666;BME280;58531;59.050;17.416;2022-08-21T04:23:19;100685.78;;;13.72;100.00
12666;BME280;58531;59.050;17.416;2022-08-21T04:25:46;100681.75;;;13.68;100.00
12666;BME280;58531;59.050;17.416;2022-08-21T04:28:13;100688.78;;;13.65;100.00
12666;BME280;58531;59.050;17.416;2022-08-21T04:30:41;100687.31;;;13.64;100.00
12666;BME280;58531;59.050;17.416;2022-08-21T04:33:07;100685.06;;;13.63;100.00
12666;BME280;58531;59.050;17.416;2022-08-21T04:35:34;100676.41;;;13.68;100.00
12666;BME280;58531;59.050;17.416;2022-08-21T04:38:01;100689.06;;;13.76;100.00
12666;BME280;58531;59.050;17.416;2022-08-21T04:40:28;100687.34;;;13.88;100.00
12666;BME280;58531;59.050;17.416;2022-08-21T04:42:56;100700.66;;;14.06;100.00
12666;BME280;58531;59.050;17.416;2022-08-21T04:45:26;100694.03;;;14.24;100.00
12666;BME280;58531;59.050;17.416;2022-08-21T04:47:57;100694.66;;;14.43;100.00
12666;BME280;58531;59.050;17.416;2022-08-21T04:50:28;100702.88;;;14.63;100.00
12666;BME280;58531;59.050;17.416;2022-08-21T04:52:56;100701.16;;;14.89;100.00
12666;BME280;58531;59.050;17.416;2022-08-21T04:55:24;100699.72;;;15.17;100.00
12666;BME280;58531;59.050;17.416;2022-08-21T04:57:52;100703.56;;;15.39;99.12
12666;BME280;58531;59.050;17.416;2022-08-21T05:00:20;100696.84;;;15.63;98.21
12666;BME280;58531;59.050;17.416;2022-08-21T05:02:47;100698.19;;;15.88;96.70
12666;BME280;58531;59.050;17.416;2022-08-21T05:05:19;100703.75;;;15.99;95.85
12666;BME280;58531;59.050;17.416;2022-08-21T05:07:46;100701.81;;;16.19;94.89
12666;BME280;58531;59.050;17.416;2022-08-21T05:10:13;100708.59;;;16.49;93.73
12666;BME280;58531;59.050;17.416;2022-08-21T05:12:41;100709.03;;;16.67;92.90
12666;BME280;58531;59.050;17.416;2022-08-21T05:15:08;100705.09;;;16.63;92.48
12666;BME280;58531;59.050;17.416;2022-08-21T05:17:37;100697.19;;;16.59;91.74
12666;BME280;58531;59.050;17.416;2022-08-21T05:20:04;100703.78;;;16.58;91.76
12666;BME280;58531;59.050;17.416;2022-08-21T05:22:32;100690.31;;;16.58;91.82
12666;BME280;58531;59.050;17.416;2022-08-21T05:24:59;100684.09;;;16.72;91.33
12666;BME280;58531;59.050;17.416;2022-08-21T05:27:26;100685.03;;;16.69;91.33
12666;BME280;58531;59.050;17.416;2022-08-21T05:29:54;100684.75;;;16.87;89.97
12666;BME280;58531;59.050;17.416;2022-08-21T05:32:21;100687.91;;;17.11;88.64
12666;BME280;58531;59.050;17.416;2022-08-21T05:34:49;100686.53;;;17.21;86.86
12666;BME280;58531;59.050;17.416;2022-08-21T05:37:16;100683.28;;;17.37;87.88
12666;BME280;58531;59.050;17.416;2022-08-21T05:39:44;100681.25;;;17.32;86.95
12666;BME280;58531;59.050;17.416;2022-08-21T05:42:11;100677.34;;;17.33;84.74
12666;BME280;58531;59.050;17.416;2022-08-21T05:44:38;100677.25;;;17.53;85.86
12666;BME280;58531;59.050;17.416;2022-08-21T05:47:05;100675.34;;;18.01;84.69
12666;BME280;58531;59.050;17.416;2022-08-21T05:49:35;100681.50;;;18.49;82.33
12666;BME280;58531;59.050;17.416;2022-08-21T05:52:03;100688.25;;;18.86;82.75
12666;BME280;58531;59.050;17.416;2022-08-21T05:54:30;100692.00;;;19.27;77.89
12666;BME280;58531;59.050;17.416;2022-08-21T05:56:58;100678.91;;;19.09;77.93
12666;BME280;58531;59.050;17.416;2022-08-21T05:59:25;100683.09;;;19.10;77.92
12666;BME280;58531;59.050;17.416;2022-08-21T06:01:52;100688.25;;;18.92;77.71
12666;BME280;58531;59.050;17.416;2022-08-21T06:04:19;100689.03;;;19.08;78.32
12666;BME280;58531;59.050;17.416;2022-08-21T06:06:46;100686.25;;;18.92;76.80
12666;BME280;58531;59.050;17.416;2022-08-21T06:09:13;100682.34;;;19.04;77.38
12666;BME280;58531;59.050;17.416;2022-08-21T06:11:40;100684.88;;;19.29;75.98
12666;BME280;58531;59.050;17.416;2022-08-21T06:14:08;100679.94;;;19.28;75.01
12666;BME280;58531;59.050;17.416;2022-08-21T06:16:35;100684.13;;;19.56;75.89
12666;BME280;58531;59.050;17.416;2022-08-21T06:19:01;100682.63;;;19.83;73.45
12666;BME280;58531;59.050;17.416;2022-08-21T06:21:28;100678.47;;;19.43;74.51
12666;BME280;58531;59.050;17.416;2022-08-21T06:23:55;100689.03;;;19.19;75.80
12666;BME280;58531;59.050;17.416;2022-08-21T06:26:22;100688.47;;;18.83;76.75
12666;BME280;58531;59.050;17.416;2022-08-21T06:28:49;100689.66;;;18.65;76.44
12666;BME280;58531;59.050;17.416;2022-08-21T06:31:20;100679.00;;;18.40;78.32
12666;BME280;58531;59.050;17.416;2022-08-21T06:33:49;100685.94;;;18.52;78.20
12666;BME280;58531;59.050;17.416;2022-08-21T06:36:16;100679.25;;;18.42;79.32
12666;BME280;58531;59.050;17.416;2022-08-21T06:38:43;100681.50;;;18.49;76.83
12666;BME280;58531;59.050;17.416;2022-08-21T06:41:10;100679.59;;;18.77;76.41
12666;BME280;58531;59.050;17.416;2022-08-21T06:43:37;100674.28;;;19.31;74.22
12666;BME280;58531;59.050;17.416;2022-08-21T06:46:04;100681.13;;;19.87;74.63
12666;BME280;58531;59.050;17.416;2022-08-21T06:48:32;100684.28;;;19.97;73.75
12666;BME280;58531;59.050;17.416;2022-08-21T06:50:59;100679.44;;;19.51;73.69
12666;BME280;58531;59.050;17.416;2022-08-21T06:53:26;100687.03;;;19.80;73.59
12666;BME280;58531;59.050;17.416;2022-08-21T06:55:53;100680.38;;;20.03;70.84
12666;BME280;58531;59.050;17.416;2022-08-21T06:58:21;100682.84;;;19.85;72.01
12666;BME280;58531;59.050;17.416;2022-08-21T07:00:49;100678.94;;;19.75;72.21
12666;BME280;58531;59.050;17.416;2022-08-21T07:03:21;100686.03;;;20.00;73.21
12666;BME280;58531;59.050;17.416;2022-08-21T07:05:49;100681.63;;;19.80;71.86
12666;BME280;58531;59.050;17.416;2022-08-21T07:08:16;100687.09;;;19.58;73.67
12666;BME280;58531;59.050;17.416;2022-08-21T07:10:43;100683.63;;;19.52;74.58
12666;BME280;58531;59.050;17.416;2022-08-21T07:13:10;100675.72;;;19.65;73.84
12666;BME280;58531;59.050;17.416;2022-08-21T07:15:37;100681.63;;;19.69;70.67
12666;BME280;58531;59.050;17.416;2022-08-21T07:18:04;100669.34;;;19.35;72.74
12666;BME280;58531;59.050;17.416;2022-08-21T07:20:31;100673.28;;;19.23;74.08
12666;BME280;58531;59.050;17.416;2022-08-21T07:23:02;100678.44;;;19.10;75.62
12666;BME280;58531;59.050;17.416;2022-08-21T07:25:30;100661.84;;;18.65;74.24
12666;BME280;58531;59.050;17.416;2022-08-21T07:27:57;100665.94;;;18.38;76.12
12666;BME280;58531;59.050;17.416;2022-08-21T07:30:24;100664.28;;;18.52;76.94
12666;BME280;58531;59.050;17.416;2022-08-21T07:32:51;100665.59;;;18.89;75.85
12666;BME280;58531;59.050;17.416;2022-08-21T07:35:19;100670.06;;;18.98;75.53
12666;BME280;58531;59.050;17.416;2022-08-21T07:37:46;100666.38;;;19.01;74.50
12666;BME280;58531;59.050;17.416;2022-08-21T07:40:15;100669.81;;;19.06;75.35
12666;BME280;58531;59.050;17.416;2022-08-21T07:42:43;100662.44;;;19.23;75.20
12666;BME280;58531;59.050;17.416;2022-08-21T07:45:11;100665.16;;;19.23;73.83
12666;BME280;58531;59.050;17.416;2022-08-21T07:47:38;100656.31;;;19.23;73.29
12666;BME280;58531;59.050;17.416;2022-08-21T07:50:06;100660.97;;;19.22;73.77
12666;BME280;58531;59.050;17.416;2022-08-21T07:52:33;100658.47;;;19.74;72.93
12666;BME280;58531;59.050;17.416;2022-08-21T07:55:00;100665.06;;;19.95;72.45
12666;BME280;58531;59.050;17.416;2022-08-21T07:57:28;100661.59;;;20.11;72.11
12666;BME280;58531;59.050;17.416;2022-08-21T07:59:55;100662.41;;;19.67;70.93
12666;BME280;58531;59.050;17.416;2022-08-21T08:02:23;100654.09;;;19.43;71.23
12666;BME280;58531;59.050;17.416;2022-08-21T08:04:49;100661.91;;;19.85;71.61
12666;BME280;58531;59.050;17.416;2022-08-21T08:07:17;100661.16;;;19.90;71.31
12666;BME280;58531;59.050;17.416;2022-08-21T08:09:43;100658.16;;;20.10;72.33
12666;BME280;58531;59.050;17.416;2022-08-21T08:12:10;100652.91;;;20.23;71.15
12666;BME280;58531;59.050;17.416;2022-08-21T08:14:38;100649.22;;;20.26;69.47
12666;BME280;58531;59.050;17.416;2022-08-21T08:17:05;100668.03;;;20.13;66.46
12666;BME280;58531;59.050;17.416;2022-08-21T08:19:31;100678.13;;;19.96;68.85
12666;BME280;58531;59.050;17.416;2022-08-21T08:21:58;100667.81;;;19.89;68.59
12666;BME280;58531;59.050;17.416;2022-08-21T08:24:25;100653.19;;;20.14;70.13
12666;BME280;58531;59.050;17.416;2022-08-21T08:26:52;100654.97;;;20.01;67.94
12666;BME280;58531;59.050;17.416;2022-08-21T08:29:19;100649.06;;;20.02;68.22
12666;BME280;58531;59.050;17.416;2022-08-21T08:31:47;100647.28;;;20.16;66.80
12666;BME280;58531;59.050;17.416;2022-08-21T08:34:14;100650.03;;;20.10;65.56
12666;BME280;58531;59.050;17.416;2022-08-21T08:36:41;100654.91;;;20.17;64.63
12666;BME280;58531;59.050;17.416;2022-08-21T08:39:07;100657.50;;;20.50;65.46
12666;BME280;58531;59.050;17.416;2022-08-21T08:41:36;100653.84;;;20.88;65.47
12666;BME280;58531;59.050;17.416;2022-08-21T08:44:04;100658.25;;;20.91;63.99
12666;BME280;58531;59.050;17.416;2022-08-21T08:46:36;100653.75;;;20.58;66.18
12666;BME280;58531;59.050;17.416;2022-08-21T08:49:10;100657.78;;;20.41;64.81
12666;BME280;58531;59.050;17.416;2022-08-21T08:51:43;100658.06;;;20.78;66.56
12666;BME280;58531;59.050;17.416;2022-08-21T08:54:15;100668.88;;;20.89;65.28
12666;BME280;58531;59.050;17.416;2022-08-21T08:56:44;100666.84;;;21.30;65.96
12666;BME280;58531;59.050;17.416;2022-08-21T08:59:15;100678.22;;;21.57;66.10
12666;BME280;58531;59.050;17.416;2022-08-21T09:01:44;100674.13;;;21.46;62.50
12666;BME280;58531;59.050;17.416;2022-08-21T09:04:13;100677.13;;;21.13;62.89
12666;BME280;58531;59.050;17.416;2022-08-21T09:07:01;100673.88;;;21.14;64.23
12666;BME280;58531;59.050;17.416;2022-08-21T09:09:40;100675.09;;;20.84;64.05
12666;BME280;58531;59.050;17.416;2022-08-21T09:12:15;100668.88;;;20.89;64.93
12666;BME280;58531;59.050;17.416;2022-08-21T09:14:52;100680.63;;;21.08;63.37
12666;BME280;58531;59.050;17.416;2022-08-21T09:17:36;100669.94;;;21.45;63.62
12666;BME280;58531;59.050;17.416;2022-08-21T09:20:16;100669.53;;;21.64;63.25
12666;BME280;58531;59.050;17.416;2022-08-21T09:22:58;100667.81;;;21.85;62.97
12666;BME280;58531;59.050;17.416;2022-08-21T09:25:32;100675.09;;;22.01;60.63
12666;BME280;58531;59.050;17.416;2022-08-21T09:27:59;100665.22;;;21.74;60.10
12666;BME280;58531;59.050;17.416;2022-08-21T09:30:29;100665.34;;;21.63;59.70
12666;BME280;58531;59.050;17.416;2022-08-21T09:32:57;100666.84;;;21.59;61.04
12666;BME280;58531;59.050;17.416;2022-08-21T09:35:26;100671.88;;;21.49;60.86
12666;BME280;58531;59.050;17.416;2022-08-21T09:37:56;100660.69;;;21.82;60.46
12666;BME280;58531;59.050;17.416;2022-08-21T09:40:30;100661.88;;;21.63;60.49
12666;BME280;58531;59.050;17.416;2022-08-21T09:42:59;100668.28;;;21.65;60.98
12666;BME280;58531;59.050;17.416;2022-08-21T09:45:26;100672.72;;;21.39;59.75
12666;BME280;58531;59.050;17.416;2022-08-21T09:47:53;100668.28;;;21.01;61.08
12666;BME280;58531;59.050;17.416;2022-08-21T09:50:25;100666.09;;;20.54;60.04
12666;BME280;58531;59.050;17.416;2022-08-21T09:52:56;100666.72;;;20.76;60.82
12666;BME280;58531;59.050;17.416;2022-08-21T09:55:31;100664.63;;;20.99;64.08
12666;BME280;58531;59.050;17.416;2022-08-21T09:58:16;100665.88;;;20.98;60.70
12666;BME280;58531;59.050;17.416;2022-08-21T10:00:44;100671.06;;;21.60;61.54
12666;BME280;58531;59.050;17.416;2022-08-21T10:03:13;100666.66;;;21.81;57.28
12666;BME280;58531;59.050;17.416;2022-08-21T10:05:52;100662.28;;;21.96;56.08
12666;BME280;58531;59.050;17.416;2022-08-21T10:08:32;100663.19;;;22.65;53.52
12666;BME280;58531;59.050;17.416;2022-08-21T10:11:04;100674.13;;;23.28;53.29
12666;BME280;58531;59.050;17.416;2022-08-21T10:13:48;100670.63;;;22.96;46.57
12666;BME280;58531;59.050;17.416;2022-08-21T10:16:28;100678.41;;;22.73;47.77
12666;BME280;58531;59.050;17.416;2022-08-21T10:19:06;100674.94;;;22.36;50.78
12666;BME280;58531;59.050;17.416;2022-08-21T10:21:41;100663.69;;;22.64;47.71
12666;BME280;58531;59.050;17.416;2022-08-21T10:24:19;100671.97;;;23.08;50.30
12666;BME280;58531;59.050;17.416;2022-08-21T10:27:02;100671.59;;;23.17;46.86
12666;BME280;58531;59.050;17.416;2022-08-21T10:29:44;100671.56;;;23.61;47.07
12666;BME280;58531;59.050;17.416;2022-08-21T10:32:23;100663.44;;;23.30;45.48
12666;BME280;58531;59.050;17.416;2022-08-21T10:35:01;100666.28;;;23.37;45.99
12666;BME280;58531;59.050;17.416;2022-08-21T10:37:40;100662.81;;;23.37;48.07
12666;BME280;58531;59.050;17.416;2022-08-21T10:40:22;100669.59;;;23.62;48.94
12666;BME280;58531;59.050;17.416;2022-08-21T10:43:03;100672.25;;;23.93;46.14
12666;BME280;58531;59.050;17.416;2022-08-21T10:45:42;100670.34;;;24.14;46.30
12666;BME280;58531;59.050;17.416;2022-08-21T10:48:18;100672.09;;;23.73;42.30
12666;BME280;58531;59.050;17.416;2022-08-21T10:50:50;100664.81;;;23.05;44.72
12666;BME280;58531;59.050;17.416;2022-08-21T10:53:32;100663.88;;;22.84;42.38
12666;BME280;58531;59.050;17.416;2022-08-21T10:56:12;100661.41;;;22.49;45.84
12666;BME280;58531;59.050;17.416;2022-08-21T10:58:45;100664.91;;;22.81;47.61
12666;BME280;58531;59.050;17.416;2022-08-21T11:01:17;100666.78;;;23.04;48.20
12666;BME280;58531;59.050;17.416;2022-08-21T11:03:50;100660.34;;;22.89;45.62
12666;BME280;58531;59.050;17.416;2022-08-21T11:06:21;100660.19;;;23.00;46.18
12666;BME280;58531;59.050;17.416;2022-08-21T11:08:51;100657.84;;;22.91;43.35
12666;BME280;58531;59.050;17.416;2022-08-21T11:11:26;100657.53;;;23.26;42.87
12666;BME280;58531;59.050;17.416;2022-08-21T11:13:56;100660.56;;;22.91;45.02
12666;BME280;58531;59.050;17.416;2022-08-21T11:16:31;100661.38;;;23.49;45.52
12666;BME280;58531;59.050;17.416;2022-08-21T11:19:02;100657.28;;;23.55;42.82
12666;BME280;58531;59.050;17.416;2022-08-21T11:21:37;100656.50;;;23.29;43.84
12666;BME280;58531;59.050;17.416;2022-08-21T11:24:24;100649.63;;;23.41;43.77
12666;BME280;58531;59.050;17.416;2022-08-21T11:27:01;100651.50;;;23.46;46.10
12666;BME280;58531;59.050;17.416;2022-08-21T11:29:33;100647.78;;;23.17;41.26
12666;BME280;58531;59.050;17.416;2022-08-21T11:32:24;100651.78;;;22.98;42.54
12666;BME280;58531;59.050;17.416;2022-08-21T11:35:03;100655.50;;;22.82;44.75
12666;BME280;58531;59.050;17.416;2022-08-21T11:40:41;100658.63;;;23.36;45.85
12666;BME280;58531;59.050;17.416;2022-08-21T11:43:17;100655.94;;;23.62;43.02
12666;BME280;58531;59.050;17.416;2022-08-21T11:45:50;100653.44;;;23.64;43.53
12666;BME280;58531;59.050;17.416;2022-08-21T11:48:33;100653.25;;;23.88;44.15
12666;BME280;58531;59.050;17.416;2022-08-21T11:51:06;100662.81;;;23.81;46.63
12666;BME280;58531;59.050;17.416;2022-08-21T11:53:38;100659.13;;;23.79;44.71
12666;BME280;58531;59.050;17.416;2022-08-21T11:56:12;100655.03;;;23.98;45.80
12666;BME280;58531;59.050;17.416;2022-08-21T11:58:45;100655.13;;;23.67;42.64
12666;BME280;58531;59.050;17.416;2022-08-21T12:01:19;100652.31;;;23.28;43.00
12666;BME280;58531;59.050;17.416;2022-08-21T12:03:53;100659.00;;;23.14;44.93
12666;BME280;58531;59.050;17.416;2022-08-21T12:06:29;100657.09;;;23.09;46.03
12666;BME280;58531;59.050;17.416;2022-08-21T12:08:58;100659.00;;;23.14;45.70
12666;BME280;58531;59.050;17.416;2022-08-21T12:11:26;100656.63;;;23.05;45.67
12666;BME280;58531;59.050;17.416;2022-08-21T12:13:56;100659.44;;;22.68;42.80
12666;BME280;58531;59.050;17.416;2022-08-21T12:16:33;100661.72;;;22.64;45.09
12666;BME280;58531;59.050;17.416;2022-08-21T12:19:05;100654.63;;;22.56;44.13
12666;BME280;58531;59.050;17.416;2022-08-21T12:21:34;100652.47;;;22.85;47.64
12666;BME280;58531;59.050;17.416;2022-08-21T12:24:18;100658.72;;;22.99;47.45
12666;BME280;58531;59.050;17.416;2022-08-21T12:26:52;100640.75;;;23.09;45.56
12666;BME280;58531;59.050;17.416;2022-08-21T12:29:26;100647.06;;;23.30;44.07
12666;BME280;58531;59.050;17.416;2022-08-21T12:31:57;100647.97;;;23.51;46.57
12666;BME280;58531;59.050;17.416;2022-08-21T12:34:30;100651.75;;;23.61;47.08
12666;BME280;58531;59.050;17.416;2022-08-21T12:37:02;100646.66;;;23.83;46.72
12666;BME280;58531;59.050;17.416;2022-08-21T12:39:31;100647.78;;;23.88;43.73
12666;BME280;58531;59.050;17.416;2022-08-21T12:42:00;100646.50;;;23.76;47.33
12666;BME280;58531;59.050;17.416;2022-08-21T12:44:37;100647.34;;;23.58;45.38
12666;BME280;58531;59.050;17.416;2022-08-21T12:47:14;100648.28;;;23.60;45.68
12666;BME280;58531;59.050;17.416;2022-08-21T12:49:47;100647.44;;;23.65;44.81
12666;BME280;58531;59.050;17.416;2022-08-21T12:52:21;100647.06;;;23.30;45.52
12666;BME280;58531;59.050;17.416;2022-08-21T12:54:48;100643.41;;;22.96;44.21